Time;durP1;ratioP1;P1;durP2;ratioP2;P2;SDS_P1;SDS_P2;PMS_P1;PMS_P2;Temp;Humidity;BMP_temperature;BMP_pressure;BME280_temperature;BME280_humidity;BME280_pressure;Samples;Min_cycle;Max_cycle;Signal;HPM_P1;HPM_P2
2024/01/18 00:00:27;;;;;;;2.30;2.10;;;6.30;45.20;;;;;;5093236;28;20422;-51
2024/01/18 00:02:53;;;;;;;4.38;2.70;;;6.30;45.30;;;;;;5093268;28;20698;-48
2024/01/18 00:05:19;;;;;;;1.83;1.73;;;6.30;45.30;;;;;;5093202;28;20275;-44
2024/01/18 00:07:44;;;;;;;3.53;2.33;;;6.40;45.40;;;;;;5092727;28;20535;-48
2024/01/18 00:10:10;;;;;;;5.03;2.87;;;6.40;45.30;;;;;;5092426;28;20859;-49
2024/01/18 00:12:38;;;;;;;1.90;1.73;;;6.40;45.20;;;;;;5092604;28;20177;-45
2024/01/18 00:15:04;;;;;;;2.92;1.30;;;6.40;45.20;;;;;;5092511;28;20440;-49
2024/01/18 00:17:30;;;;;;;3.08;1.70;;;6.40;45.20;;;;;;5092349;28;20254;-49
2024/01/18 00:19:56;;;;;;;2.53;2.33;;;6.40;45.20;;;;;;5092180;28;20179;-45
2024/01/18 00:22:22;;;;;;;3.70;1.77;;;6.40;45.20;;;;;;5092699;28;20263;-49
2024/01/18 00:24:48;;;;;;;6.03;4.60;;;6.40;45.00;;;;;;5092199;28;20176;-49
2024/01/18 00:27:13;;;;;;;1.53;1.40;;;6.40;45.00;;;;;;5092273;28;20246;-44
2024/01/18 00:29:39;;;;;;;1.93;1.83;;;6.40;45.00;;;;;;5092269;28;20168;-46
2024/01/18 00:32:05;;;;;;;4.63;4.23;;;6.40;45.00;;;;;;5091994;28;20211;-48
2024/01/18 00:34:31;;;;;;;2.90;2.70;;;6.40;45.10;;;;;;5092272;28;20507;-47
2024/01/18 00:36:56;;;;;;;12.23;3.77;;;6.30;45.20;;;;;;5092360;28;20184;-43
2024/01/18 00:39:24;;;;;;;1.63;1.53;;;6.30;45.40;;;;;;5092164;28;20251;-48
2024/01/18 00:41:49;;;;;;;1.63;1.52;;;6.20;45.60;;;;;;5091776;28;20220;-49
2024/01/18 00:44:15;;;;;;;3.00;2.27;;;6.20;45.90;;;;;;5092205;28;20650;-45
2024/01/18 00:46:41;;;;;;;2.13;2.00;;;6.10;45.80;;;;;;5091944;28;20275;-48
2024/01/18 00:49:07;;;;;;;4.17;2.20;;;6.10;46.00;;;;;;5096852;28;20630;-46
2024/01/18 00:51:32;;;;;;;3.57;3.10;;;6.00;46.10;;;;;;5098775;28;20425;-43
2024/01/18 00:53:58;;;;;;;2.30;2.13;;;6.00;46.10;;;;;;5098632;28;20641;-46
2024/01/18 00:56:24;;;;;;;3.43;2.50;;;6.00;46.30;;;;;;5098712;28;20175;-47
2024/01/18 00:58:49;;;;;;;1.43;1.33;;;6.00;46.30;;;;;;5098818;28;20237;-47
2024/01/18 01:01:16;;;;;;;5.43;4.50;;;6.00;46.30;;;;;;5098327;28;20192;-45
2024/01/18 01:03:42;;;;;;;2.78;2.58;;;5.90;46.40;;;;;;5098839;28;20402;-48
2024/01/18 01:06:11;;;;;;;1.73;1.63;;;6.00;46.40;;;;;;5098593;28;20204;-45
2024/01/18 01:08:37;;;;;;;1.48;1.38;;;6.00;46.30;;;;;;5098737;28;20769;-43
2024/01/18 01:11:04;;;;;;;6.57;2.60;;;6.00;46.20;;;;;;5098407;28;20670;-49
2024/01/18 01:13:30;;;;;;;5.30;2.92;;;6.00;46.10;;;;;;5098585;28;20225;-49
2024/01/18 01:15:55;;;;;;;2.92;1.88;;;6.00;45.90;;;;;;5098477;28;20634;-45
2024/01/18 01:18:21;;;;;;;2.37;2.17;;;6.10;46.00;;;;;;5098846;28;20177;-43
2024/01/18 01:20:47;;;;;;;2.33;1.93;;;6.00;45.80;;;;;;5098236;28;20200;-47
2024/01/18 01:23:12;;;;;;;6.73;3.63;;;6.00;45.80;;;;;;5098590;28;20172;-49
2024/01/18 01:25:39;;;;;;;2.80;2.43;;;6.00;45.80;;;;;;5098477;28;20229;-45
2024/01/18 01:28:05;;;;;;;1.65;1.55;;;6.00;45.80;;;;;;5098461;28;20200;-45
2024/01/18 01:30:31;;;;;;;3.67;3.38;;;6.10;45.90;;;;;;5098043;28;20666;-47
2024/01/18 01:32:57;;;;;;;1.85;0.88;;;6.00;46.00;;;;;;5098374;28;20163;-45
2024/01/18 01:35:23;;;;;;;4.10;1.23;;;6.00;45.90;;;;;;5098653;28;20172;-45
2024/01/18 01:37:49;;;;;;;1.40;1.30;;;5.90;46.20;;;;;;5098483;28;20485;-48
2024/01/18 01:40:15;;;;;;;3.27;2.10;;;5.90;46.30;;;;;;5097935;28;20250;-46
2024/01/18 01:42:40;;;;;;;3.97;3.57;;;5.80;46.40;;;;;;5098246;28;20184;-44
2024/01/18 01:45:06;;;;;;;2.37;2.17;;;5.80;46.40;;;;;;5098191;28;20434;-48
2024/01/18 01:47:32;;;;;;;2.45;2.35;;;5.80;46.50;;;;;;5098406;28;20210;-49
2024/01/18 01:49:59;;;;;;;2.63;2.13;;;5.70;47.00;;;;;;5098001;28;20267;-44
2024/01/18 01:52:26;;;;;;;3.92;3.00;;;5.60;46.90;;;;;;5098143;28;20260;-48
2024/01/18 01:54:52;;;;;;;4.07;3.20;;;5.60;47.10;;;;;;5098303;28;20642;-47
2024/01/18 01:57:20;;;;;;;4.00;3.13;;;5.50;46.90;;;;;;5098241;28;20172;-45
2024/01/18 01:59:47;;;;;;;3.13;2.83;;;5.60;47.20;;;;;;5096026;28;20908;-43
2024/01/18 02:02:13;;;;;;;7.78;2.70;;;5.60;47.00;;;;;;5094823;28;20198;-47
2024/01/18 02:04:40;;;;;;;2.58;1.92;;;5.50;47.00;;;;;;5095067;28;20176;-48
2024/01/18 02:07:08;;;;;;;3.00;2.70;;;5.50;47.10;;;;;;5094754;28;20208;-45
2024/01/18 02:09:34;;;;;;;2.88;2.63;;;5.50;47.20;;;;;;5094985;28;20183;-46
2024/01/18 02:12:02;;;;;;;6.40;1.80;;;5.50;47.00;;;;;;5094556;28;20196;-47
2024/01/18 02:14:29;;;;;;;1.83;1.63;;;5.50;47.00;;;;;;5094642;28;20406;-48
2024/01/18 02:16:55;;;;;;;2.15;1.95;;;5.40;46.90;;;;;;5094875;28;20177;-45
2024/01/18 02:19:21;;;;;;;3.17;2.95;;;5.50;47.10;;;;;;5094657;28;20173;-45
2024/01/18 02:21:47;;;;;;;1.70;1.60;;;5.50;47.20;;;;;;5094296;28;20192;-49
2024/01/18 02:24:24;;;;;;;2.10;1.90;;;5.40;47.00;;;;;;5094491;28;20416;-46
2024/01/18 02:26:50;;;;;;;2.78;2.35;;;5.40;46.90;;;;;;5094429;28;20993;-48
2024/01/18 02:29:16;;;;;;;1.87;1.30;;;5.50;47.00;;;;;;5094754;28;20182;-47
2024/01/18 02:31:41;;;;;;;1.83;0.83;;;5.50;46.90;;;;;;5094381;28;20203;-45
2024/01/18 02:34:10;;;;;;;2.60;2.40;;;5.40;47.10;;;;;;5094304;28;20172;-48
2024/01/18 02:36:35;;;;;;;2.15;1.98;;;5.40;47.10;;;;;;5094462;28;20187;-47
2024/01/18 02:39:02;;;;;;;1.20;1.10;;;5.40;47.10;;;;;;5094330;28;20176;-51
2024/01/18 02:41:29;;;;;;;0.80;0.40;;;5.40;47.00;;;;;;5093852;28;20446;-46
2024/01/18 02:43:56;;;;;;;3.58;3.28;;;5.50;47.00;;;;;;5094381;28;20180;-45
2024/01/18 02:46:23;;;;;;;1.35;1.25;;;5.50;46.90;;;;;;5094200;28;20200;-50
2024/01/18 02:48:48;;;;;;;3.15;2.95;;;5.50;46.70;;;;;;5094237;28;20176;-48
2024/01/18 02:51:14;;;;;;;2.43;2.30;;;5.50;46.60;;;;;;5093833;28;20588;-46
2024/01/18 02:53:40;;;;;;;2.00;1.87;;;5.60;46.70;;;;;;5093986;28;20179;-44
2024/01/18 02:56:06;;;;;;;3.80;2.30;;;5.60;46.60;;;;;;5094184;28;20413;-45
2024/01/18 02:58:31;;;;;;;2.60;1.70;;;5.70;46.50;;;;;;5094059;28;20177;-46
2024/01/18 03:00:57;;;;;;;2.57;2.30;;;5.60;46.60;;;;;;5093649;28;20267;-46
2024/01/18 03:03:23;;;;;;;3.43;3.20;;;5.60;46.50;;;;;;5093916;28;20181;-47
2024/01/18 03:05:49;;;;;;;1.57;1.47;;;5.60;46.40;;;;;;5093705;28;20200;-43
2024/01/18 03:08:15;;;;;;;1.20;1.00;;;5.60;46.30;;;;;;5093770;28;20169;-47
2024/01/18 03:10:41;;;;;;;0.80;0.40;;;5.60;46.40;;;;;;5093447;28;20600;-49
2024/01/18 03:13:07;;;;;;;2.67;2.47;;;5.50;46.30;;;;;;5092813;28;20178;-45
2024/01/18 03:15:33;;;;;;;0.90;0.73;;;5.50;46.30;;;;;;5093816;28;20222;-45
2024/01/18 03:17:58;;;;;;;1.92;1.50;;;5.50;46.40;;;;;;5093543;28;20177;-48
2024/01/18 03:20:24;;;;;;;1.13;1.03;;;5.50;46.40;;;;;;5093255;28;20192;-48
2024/01/18 03:22:50;;;;;;;2.50;2.30;;;5.50;46.20;;;;;;5093456;28;20207;-45
2024/01/18 03:25:16;;;;;;;0.90;0.60;;;5.40;46.20;;;;;;5093398;28;20905;-47
2024/01/18 03:27:41;;;;;;;2.10;1.90;;;5.40;46.30;;;;;;5093538;28;20261;-49
2024/01/18 03:30:07;;;;;;;5.80;1.77;;;5.40;46.30;;;;;;5093226;28;20223;-45
2024/01/18 03:32:33;;;;;;;3.13;2.93;;;5.40;46.30;;;;;;5093285;28;20180;-46
2024/01/18 03:34:59;;;;;;;2.33;2.23;;;5.40;46.10;;;;;;5093132;28;20443;-45
2024/01/18 03:37:26;;;;;;;2.37;1.60;;;5.30;46.20;;;;;;5093209;28;20414;-46
2024/01/18 03:39:51;;;;;;;1.10;1.00;;;5.20;46.00;;;;;;5092822;28;20418;-48
2024/01/18 03:42:17;;;;;;;1.42;1.33;;;5.80;46.40;;;;;;5093175;28;20751;-43
2024/01/18 03:44:43;;;;;;;1.50;1.40;;;5.20;46.30;;;;;;5093014;28;20301;-49
2024/01/18 03:47:09;;;;;;;1.10;1.00;;;5.20;46.30;;;;;;5092900;28;20450;-43
2024/01/18 03:49:34;;;;;;;2.90;1.80;;;5.20;46.30;;;;;;5092887;28;20168;-49
2024/01/18 03:52:00;;;;;;;1.50;1.17;;;5.10;46.30;;;;;;5092807;28;20189;-46
2024/01/18 03:54:26;;;;;;;0.90;0.60;;;5.20;46.00;;;;;;5092947;28;20249;-44
2024/01/18 03:56:52;;;;;;;1.23;1.00;;;5.10;46.10;;;;;;5092795;28;20409;-46
2024/01/18 03:59:20;;;;;;;2.97;2.60;;;5.10;45.90;;;;;;5092992;28;20187;-49
2024/01/18 04:01:45;;;;;;;0.90;0.73;;;5.10;45.90;;;;;;5092663;28;20620;-45
2024/01/18 04:04:11;;;;;;;1.30;0.93;;;5.10;45.90;;;;;;5092870;28;20685;-46
2024/01/18 04:06:38;;;;;;;1.23;1.13;;;5.10;45.80;;;;;;5093493;28;20447;-47
2024/01/18 04:09:06;;;;;;;2.70;1.90;;;5.10;45.80;;;;;;5093615;28;20182;-47
2024/01/18 04:11:32;;;;;;;3.75;1.65;;;5.10;45.70;;;;;;5093753;28;20196;-45
2024/01/18 04:13:57;;;;;;;1.80;1.70;;;5.20;45.70;;;;;;5092690;28;20172;-47
2024/01/18 04:16:23;;;;;;;1.30;1.20;;;5.10;45.70;;;;;;5092633;28;20500;-48
2024/01/18 04:18:49;;;;;;;1.40;1.00;;;5.20;45.80;;;;;;5091240;28;20263;-45
2024/01/18 04:21:14;;;;;;;1.10;0.80;;;5.20;45.80;;;;;;5092331;28;20196;-44
2024/01/18 04:23:40;;;;;;;1.47;1.37;;;5.20;45.80;;;;;;5092191;28;20662;-50
2024/01/18 04:26:06;;;;;;;0.90;0.63;;;5.20;45.70;;;;;;5092598;28;20816;-46
2024/01/18 04:28:32;;;;;;;10.32;2.53;;;5.20;45.70;;;;;;5092254;28;20533;-45
2024/01/18 04:30:57;;;;;;;1.80;1.70;;;5.20;45.60;;;;;;5092298;28;20235;-46
2024/01/18 04:33:23;;;;;;;0.90;0.70;;;5.20;45.30;;;;;;5092214;28;20164;-47
2024/01/18 04:35:49;;;;;;;0.90;0.70;;;5.20;45.30;;;;;;5092205;28;20650;-46
2024/01/18 04:38:15;;;;;;;0.90;0.65;;;5.20;45.30;;;;;;5092307;28;20214;-47
2024/01/18 04:40:40;;;;;;;1.10;1.00;;;5.20;45.40;;;;;;5091808;28;20215;-44
2024/01/18 04:43:06;;;;;;;3.57;3.37;;;5.10;45.20;;;;;;5092565;28;20172;-44
2024/01/18 04:45:32;;;;;;;0.90;0.70;;;5.10;45.30;;;;;;5092236;28;20172;-47
2024/01/18 04:47:58;;;;;;;0.90;0.77;;;5.10;45.20;;;;;;5092257;28;20250;-50
2024/01/18 04:50:26;;;;;;;1.65;1.55;;;5.10;45.20;;;;;;5092058;28;20187;-46
2024/01/18 04:52:53;;;;;;;3.97;3.67;;;5.10;45.30;;;;;;5092212;28;20168;-46
2024/01/18 04:55:19;;;;;;;1.92;1.73;;;5.10;45.20;;;;;;5092141;28;20168;-49
2024/01/18 04:57:45;;;;;;;1.50;1.40;;;5.10;45.20;;;;;;5092329;28;20177;-48
2024/01/18 05:00:12;;;;;;;2.55;2.35;;;5.00;45.00;;;;;;5092166;28;20253;-45
2024/01/18 05:02:38;;;;;;;3.35;1.98;;;5.00;45.00;;;;;;5092302;28;20178;-46
2024/01/18 05:05:06;;;;;;;0.80;0.45;;;5.00;44.90;;;;;;5091943;28;20176;-47
2024/01/18 05:07:32;;;;;;;1.42;1.33;;;5.00;44.90;;;;;;5091982;28;20261;-44
2024/01/18 05:09:58;;;;;;;2.10;1.23;;;5.00;45.00;;;;;;5091653;28;20174;-46
2024/01/18 05:12:24;;;;;;;1.90;1.70;;;5.00;45.00;;;;;;5091995;28;20182;-48
2024/01/18 05:14:49;;;;;;;1.30;1.10;;;5.00;44.90;;;;;;5091910;28;20534;-47
2024/01/18 05:17:16;;;;;;;0.93;0.63;;;5.00;44.80;;;;;;5091948;28;20263;-46
2024/01/18 05:19:43;;;;;;;1.27;0.77;;;5.00;44.60;;;;;;5091722;28;20317;-48
2024/01/18 05:22:09;;;;;;;3.25;1.30;;;4.90;44.70;;;;;;5091565;28;20206;-48
2024/01/18 05:24:35;;;;;;;1.50;1.40;;;4.90;44.80;;;;;;5092043;28;20520;-43
2024/01/18 05:27:05;;;;;;;2.20;1.30;;;4.90;44.90;;;;;;5091813;28;20696;-46
2024/01/18 05:29:31;;;;;;;1.17;1.08;;;4.90;45.00;;;;;;5091743;28;20916;-47
2024/01/18 05:31:57;;;;;;;22.93;1.70;;;5.00;45.00;;;;;;5091565;28;20220;-45
2024/01/18 05:34:23;;;;;;;0.80;0.40;;;4.90;44.90;;;;;;5091609;28;20406;-47
2024/01/18 05:36:48;;;;;;;1.10;1.00;;;5.00;44.90;;;;;;5095406;28;20637;-47
2024/01/18 05:39:14;;;;;;;1.90;1.60;;;5.00;44.80;;;;;;5095826;28;20218;-45
2024/01/18 05:41:40;;;;;;;0.80;0.30;;;5.00;44.70;;;;;;5095158;28;20489;-46
2024/01/18 05:44:06;;;;;;;2.83;2.43;;;5.00;44.50;;;;;;5094157;28;20425;-46
2024/01/18 05:46:31;;;;;;;2.00;1.90;;;5.00;44.40;;;;;;5095239;28;20235;-45
2024/01/18 05:48:57;;;;;;;0.90;0.57;;;5.00;44.10;;;;;;5095197;28;20169;-47
2024/01/18 05:51:23;;;;;;;0.80;0.40;;;5.10;44.40;;;;;;5095341;28;20195;-50
2024/01/18 05:53:49;;;;;;;0.90;0.53;;;5.10;44.40;;;;;;5095469;28;20646;-43
2024/01/18 05:56:14;;;;;;;4.10;1.53;;;5.10;44.20;;;;;;5095287;28;20180;-46
2024/01/18 05:58:40;;;;;;;2.47;2.27;;;5.10;44.30;;;;;;5095166;28;20203;-49
2024/01/18 06:01:06;;;;;;;1.00;0.70;;;5.10;44.20;;;;;;5095038;28;20277;-45
2024/01/18 06:03:32;;;;;;;2.20;1.43;;;5.10;44.20;;;;;;5095002;28;20878;-46
2024/01/18 06:05:58;;;;;;;1.53;0.70;;;5.00;44.00;;;;;;5095036;28;20192;-46
2024/01/18 06:08:26;;;;;;;1.10;0.93;;;5.00;44.00;;;;;;5095155;28;20304;-45
2024/01/18 06:10:52;;;;;;;8.00;2.28;;;5.00;44.10;;;;;;5094661;28;20704;-45
2024/01/18 06:13:17;;;;;;;2.40;2.20;;;4.90;44.20;;;;;;5094922;28;20204;-48
2024/01/18 06:15:43;;;;;;;1.20;0.90;;;4.90;44.50;;;;;;5094937;28;20175;-44
2024/01/18 06:18:09;;;;;;;2.27;1.93;;;5.00;44.50;;;;;;5094771;28;20202;-44
2024/01/18 06:20:35;;;;;;;1.60;1.50;;;4.90;44.30;;;;;;5094736;28;20196;-49
2024/01/18 06:23:01;;;;;;;1.60;1.40;;;4.90;44.40;;;;;;5094659;28;20661;-45
2024/01/18 06:25:27;;;;;;;1.55;1.45;;;4.90;44.40;;;;;;5094752;28;20523;-44
2024/01/18 06:27:53;;;;;;;1.88;1.75;;;4.90;44.30;;;;;;5094810;28;20203;-47
2024/01/18 06:30:19;;;;;;;3.22;1.77;;;4.90;44.40;;;;;;5094439;28;20246;-48
2024/01/18 06:32:45;;;;;;;0.80;0.50;;;4.80;44.20;;;;;;5094380;28;20542;-43
2024/01/18 06:35:11;;;;;;;1.00;0.80;;;4.90;44.40;;;;;;5094599;28;20403;-50
2024/01/18 06:37:38;;;;;;;2.08;1.10;;;4.90;44.20;;;;;;5094631;28;20414;-51
2024/01/18 06:40:04;;;;;;;2.50;2.30;;;4.90;44.10;;;;;;5094121;28;20661;-43
2024/01/18 06:42:31;;;;;;;1.40;1.13;;;4.90;44.10;;;;;;5094468;28;20242;-47
2024/01/18 06:44:57;;;;;;;0.80;0.40;;;4.90;44.10;;;;;;5094258;28;20233;-47
2024/01/18 06:47:23;;;;;;;1.47;1.13;;;4.90;44.10;;;;;;5094194;28;20287;-44
2024/01/18 06:49:48;;;;;;;0.80;0.40;;;4.90;44.10;;;;;;5093011;28;20908;-45
2024/01/18 06:52:14;;;;;;;0.87;0.60;;;4.90;44.00;;;;;;5094110;28;20214;-47
2024/01/18 06:54:43;;;;;;;4.57;4.17;;;4.90;44.10;;;;;;5094081;28;20619;-43
2024/01/18 06:57:09;;;;;;;1.67;1.10;;;4.80;44.30;;;;;;5094140;28;20255;-51
2024/01/18 06:59:35;;;;;;;2.20;1.53;;;4.90;44.20;;;;;;5094026;28;20727;-50
2024/01/18 07:02:02;;;;;;;1.30;1.08;;;4.90;44.00;;;;;;5093548;28;20974;-45
2024/01/18 07:04:28;;;;;;;1.73;1.55;;;4.90;44.10;;;;;;5094164;28;20318;-47
2024/01/18 07:06:54;;;;;;;2.35;1.45;;;4.90;44.20;;;;;;5093929;28;20741;-44
2024/01/18 07:09:20;;;;;;;1.40;1.27;;;4.90;44.10;;;;;;5093972;28;20257;-44
2024/01/18 07:11:46;;;;;;;2.93;1.23;;;4.90;44.00;;;;;;5093806;28;20554;-49
2024/01/18 07:14:12;;;;;;;2.15;2.05;;;4.80;43.90;;;;;;5093660;28;20228;-46
2024/01/18 07:16:37;;;;;;;3.73;1.43;;;4.90;44.10;;;;;;5093845;28;20172;-45
2024/01/18 07:19:04;;;;;;;1.93;1.33;;;4.80;44.10;;;;;;5093805;28;20437;-49
2024/01/18 07:21:30;;;;;;;1.25;1.15;;;4.90;45.00;;;;;;5093639;28;20201;-46
2024/01/18 07:23:56;;;;;;;1.13;0.90;;;4.90;44.20;;;;;;5092275;28;20545;-45
2024/01/18 07:26:21;;;;;;;1.50;1.40;;;4.90;44.00;;;;;;5092136;28;20203;-49
2024/01/18 07:28:48;;;;;;;2.30;1.77;;;4.90;44.00;;;;;;5093444;28;20165;-47
2024/01/18 07:31:14;;;;;;;1.52;1.42;;;4.90;44.00;;;;;;5093205;28;20189;-45
2024/01/18 07:33:40;;;;;;;2.35;1.60;;;4.90;44.10;;;;;;5093200;28;20545;-46
2024/01/18 07:36:06;;;;;;;1.30;1.20;;;4.90;44.00;;;;;;5093251;28;20172;-49
2024/01/18 07:38:32;;;;;;;1.45;0.95;;;4.80;43.90;;;;;;5092088;28;20780;-44
2024/01/18 07:40:58;;;;;;;1.40;1.23;;;4.80;44.00;;;;;;5093090;28;20215;-46
2024/01/18 07:43:24;;;;;;;3.43;1.97;;;4.80;44.00;;;;;;5091752;28;20746;-49
2024/01/18 07:45:50;;;;;;;14.40;2.00;;;4.90;44.00;;;;;;5092901;28;20199;-45
2024/01/18 07:48:15;;;;;;;8.27;2.58;;;4.90;43.90;;;;;;5093093;28;20402;-43
2024/01/18 07:50:41;;;;;;;3.37;1.87;;;4.90;44.00;;;;;;5092695;28;20287;-50
2024/01/18 07:53:07;;;;;;;2.10;1.73;;;4.90;44.10;;;;;;5093022;28;20180;-51
2024/01/18 07:55:33;;;;;;;1.37;1.27;;;4.90;44.10;;;;;;5093115;28;20959;-43
2024/01/18 07:57:59;;;;;;;4.50;1.63;;;4.90;44.20;;;;;;5092088;28;20173;-44
2024/01/18 08:00:25;;;;;;;2.08;1.65;;;4.90;44.20;;;;;;5092720;28;20436;-48
2024/01/18 08:02:51;;;;;;;5.43;1.80;;;5.00;44.10;;;;;;5092991;28;20180;-47
2024/01/18 08:05:17;;;;;;;1.20;1.10;;;5.00;44.20;;;;;;5094614;28;20412;-45
2024/01/18 08:07:42;;;;;;;2.10;1.87;;;5.10;44.30;;;;;;5093886;28;20816;-47
2024/01/18 08:10:09;;;;;;;4.87;2.40;;;5.10;44.30;;;;;;5092464;28;20445;-50
2024/01/18 08:12:35;;;;;;;1.33;1.20;;;5.20;44.30;;;;;;5092565;28;20173;-45
2024/01/18 08:15:00;;;;;;;4.00;3.33;;;5.20;44.20;;;;;;5092587;28;20172;-46
2024/01/18 08:17:27;;;;;;;1.97;1.70;;;5.30;44.30;;;;;;5092656;28;20168;-49
2024/01/18 08:19:54;;;;;;;11.02;2.75;;;5.30;44.30;;;;;;5092637;28;20183;-50
2024/01/18 08:22:20;;;;;;;1.67;1.58;;;5.60;44.20;;;;;;5092731;28;20260;-45
2024/01/18 08:24:47;;;;;;;2.10;2.00;;;5.30;44.10;;;;;;5092561;28;20176;-46
2024/01/18 08:27:13;;;;;;;4.00;3.70;;;5.30;44.10;;;;;;5092358;28;20454;-47
2024/01/18 08:29:39;;;;;;;1.30;1.17;;;5.30;44.00;;;;;;5092669;28;20187;-45
2024/01/18 08:32:05;;;;;;;3.27;2.30;;;5.30;43.90;;;;;;5092329;28;20801;-47
2024/01/18 08:34:31;;;;;;;4.20;3.42;;;5.30;43.90;;;;;;5092342;28;20452;-47
2024/01/18 08:36:57;;;;;;;5.03;4.60;;;5.30;44.10;;;;;;5092370;28;20176;-44
2024/01/18 08:39:23;;;;;;;4.03;2.30;;;5.40;44.20;;;;;;5091018;28;20823;-45
2024/01/18 08:41:48;;;;;;;3.80;3.50;;;5.40;44.10;;;;;;5091858;28;20243;-50
2024/01/18 08:44:14;;;;;;;1.83;1.10;;;5.50;44.00;;;;;;5092401;28;20370;-48
2024/01/18 08:46:40;;;;;;;1.60;1.50;;;5.50;44.00;;;;;;5092617;28;20199;-47
2024/01/18 08:49:07;;;;;;;2.57;2.37;;;5.50;44.10;;;;;;5092110;28;20482;-49
2024/01/18 08:51:33;;;;;;;1.45;1.35;;;5.60;44.00;;;;;;5091930;28;20192;-45
2024/01/18 08:53:59;;;;;;;2.40;2.00;;;5.60;43.90;;;;;;5092089;28;20222;-48
2024/01/18 08:56:25;;;;;;;1.33;1.23;;;5.70;44.00;;;;;;5091947;28;20419;-48
2024/01/18 08:58:50;;;;;;;1.70;1.60;;;5.60;43.90;;;;;;5092345;28;20188;-47
2024/01/18 09:01:16;;;;;;;4.27;3.30;;;5.70;43.70;;;;;;5091855;28;20255;-44
2024/01/18 09:03:42;;;;;;;11.90;2.13;;;5.60;43.70;;;;;;5092215;28;20265;-47
2024/01/18 09:06:08;;;;;;;1.43;1.17;;;5.60;43.60;;;;;;5092046;28;20196;-44
2024/01/18 09:08:36;;;;;;;4.20;3.80;;;5.60;43.60;;;;;;5092183;28;20617;-46
2024/01/18 09:11:03;;;;;;;5.80;1.85;;;5.60;43.80;;;;;;5096181;28;20595;-48
2024/01/18 09:13:29;;;;;;;2.72;2.40;;;5.50;43.90;;;;;;5096383;28;20177;-47
2024/01/18 09:15:55;;;;;;;5.80;5.30;;;5.50;43.80;;;;;;5096169;28;20171;-47
2024/01/18 09:18:21;;;;;;;9.67;4.97;;;5.50;43.70;;;;;;5096052;28;20172;-48
2024/01/18 09:20:47;;;;;;;3.23;1.67;;;5.50;43.40;;;;;;5095859;28;20301;-44
2024/01/18 09:23:13;;;;;;;5.77;4.13;;;5.50;43.60;;;;;;5096090;28;20200;-45
2024/01/18 09:25:41;;;;;;;2.40;2.20;;;5.50;43.60;;;;;;5095833;28;20402;-51
2024/01/18 09:28:10;;;;;;;7.35;1.98;;;5.40;43.50;;;;;;5095876;28;20466;-44
2024/01/18 09:30:36;;;;;;;2.53;2.33;;;5.50;43.80;;;;;;5095493;28;20202;-48
2024/01/18 09:33:03;;;;;;;1.55;1.45;;;5.40;43.40;;;;;;5095632;28;20212;-44
2024/01/18 09:35:29;;;;;;;2.45;2.25;;;5.40;43.50;;;;;;5095758;28;20183;-44
2024/01/18 09:37:56;;;;;;;3.33;2.80;;;5.40;43.50;;;;;;5095474;28;20176;-49
2024/01/18 09:40:22;;;;;;;3.17;1.63;;;5.50;43.70;;;;;;5094194;28;20521;-49
2024/01/18 09:42:50;;;;;;;3.55;2.65;;;5.50;43.70;;;;;;5095582;28;20180;-45
2024/01/18 09:45:21;;;;;;;5.25;1.95;;;5.60;43.50;;;;;;5095320;28;20199;-45
2024/01/18 09:47:47;;;;;;;0.77;0.30;;;5.70;43.50;;;;;;5095551;28;20269;-45
2024/01/18 09:50:16;;;;;;;1.23;1.13;;;5.60;43.40;;;;;;5095212;28;20192;-44
2024/01/18 09:52:42;;;;;;;3.75;3.33;;;5.70;43.50;;;;;;5095177;28;20918;-48
2024/01/18 09:55:09;;;;;;;6.07;4.47;;;5.70;43.30;;;;;;5095166;28;20180;-50
2024/01/18 09:57:41;;;;;;;4.38;3.97;;;5.70;43.40;;;;;;5095139;28;20414;-45
2024/01/18 10:00:13;;;;;;;1.52;0.93;;;5.70;43.50;;;;;;5095113;28;20204;-45
2024/01/18 10:02:39;;;;;;;3.28;2.45;;;5.70;44.30;;;;;;5095050;28;20173;-46
2024/01/18 10:05:07;;;;;;;2.20;2.00;;;5.70;43.40;;;;;;5094956;28;20526;-45
2024/01/18 10:07:32;;;;;;;3.30;2.55;;;5.70;43.50;;;;;;5093918;28;20449;-45
2024/01/18 10:09:58;;;;;;;1.93;1.77;;;5.70;43.30;;;;;;5094765;28;20183;-51
2024/01/18 10:12:32;;;;;;;4.70;1.90;;;5.70;43.40;;;;;;5094897;28;20165;-50
2024/01/18 10:14:58;;;;;;;1.83;1.70;;;5.60;43.40;;;;;;5095028;28;20164;-45
2024/01/18 10:17:25;;;;;;;5.87;2.60;;;5.60;43.60;;;;;;5094850;28;20176;-46
2024/01/18 10:19:58;;;;;;;2.33;2.22;;;5.70;43.40;;;;;;5094961;28;20896;-49
2024/01/18 10:22:24;;;;;;;3.80;3.40;;;5.70;43.40;;;;;;5093768;28;20195;-44
2024/01/18 10:24:50;;;;;;;7.50;4.07;;;5.60;43.10;;;;;;5093534;28;20226;-45
2024/01/18 10:27:20;;;;;;;4.10;3.70;;;5.60;43.00;;;;;;5074088;28;20728;-47
2024/01/18 10:29:46;;;;;;;1.65;1.50;;;5.60;43.10;;;;;;5074075;28;20410;-45
2024/01/18 10:32:11;;;;;;;8.33;3.10;;;5.60;43.40;;;;;;5081377;28;20169;-45
2024/01/18 10:34:38;;;;;;;8.53;3.00;;;5.70;43.30;;;;;;5073022;28;20204;-50
2024/01/18 10:37:05;;;;;;;5.13;3.08;;;5.70;43.30;;;;;;5074185;28;20527;-46
2024/01/18 10:39:41;;;;;;;3.47;2.88;;;5.70;43.30;;;;;;5074372;28;20181;-49
2024/01/18 10:42:12;;;;;;;6.00;5.47;;;5.80;43.00;;;;;;5090577;28;20303;-45
2024/01/18 10:44:43;;;;;;;4.38;2.63;;;5.80;43.10;;;;;;5073978;28;20180;-46
2024/01/18 10:47:13;;;;;;;3.80;2.22;;;5.80;43.10;;;;;;5073992;28;20754;-47
2024/01/18 10:49:40;;;;;;;1.70;1.60;;;5.90;42.90;;;;;;5073967;28;20176;-45
2024/01/18 10:52:10;;;;;;;2.60;1.95;;;5.90;43.10;;;;;;5073713;28;20520;-45
2024/01/18 10:54:36;;;;;;;1.95;1.85;;;5.90;42.90;;;;;;5089430;28;20267;-45
2024/01/18 10:57:03;;;;;;;4.93;3.22;;;5.90;42.80;;;;;;5074557;28;20216;-43
2024/01/18 10:59:29;;;;;;;3.03;2.75;;;5.90;42.60;;;;;;5073696;28;20181;-48
2024/01/18 11:01:59;;;;;;;6.88;3.90;;;5.90;42.70;;;;;;5073498;28;20237;-46
2024/01/18 11:04:29;;;;;;;2.35;1.85;;;5.90;42.70;;;;;;5073856;28;20270;-44
2024/01/18 11:06:58;;;;;;;4.45;3.35;;;5.90;42.80;;;;;;5073410;28;20571;-47
2024/01/18 11:09:29;;;;;;;5.97;4.45;;;5.90;42.70;;;;;;5073459;28;20252;-44
2024/01/18 11:11:57;;;;;;;2.88;2.28;;;5.90;42.40;;;;;;5072957;28;20197;-52
2024/01/18 11:14:24;;;;;;;4.70;3.30;;;5.90;42.30;;;;;;5073742;28;20192;-45
2024/01/18 11:16:50;;;;;;;1.85;1.75;;;5.80;42.00;;;;;;5073439;28;20264;-46
2024/01/18 11:19:39;;;;;;;6.80;2.37;;;5.80;41.90;;;;;;5073260;28;20272;-44
2024/01/18 11:22:08;;;;;;;2.35;2.08;;;5.80;42.00;;;;;;5072637;28;20201;-49
2024/01/18 11:24:34;;;;;;;10.05;7.22;;;5.80;42.20;;;;;;5072913;28;20639;-44
2024/01/18 11:27:00;;;;;;;2.70;2.13;;;5.70;42.10;;;;;;5072967;28;20258;-45
2024/01/18 11:29:26;;;;;;;1.80;1.70;;;5.70;41.90;;;;;;5073016;28;20189;-49
2024/01/18 11:31:52;;;;;;;3.15;2.53;;;5.70;41.80;;;;;;5073651;28;20250;-46
2024/01/18 11:34:36;;;;;;;3.93;3.63;;;5.70;42.00;;;;;;5087774;28;20256;-45
2024/01/18 11:37:16;;;;;;;3.63;2.17;;;5.60;42.40;;;;;;5073086;28;20419;-49
2024/01/18 11:39:48;;;;;;;2.33;1.17;;;5.60;41.90;;;;;;5072926;28;20177;-46
2024/01/18 11:42:41;;;;;;;4.95;2.10;;;5.60;42.10;;;;;;5085268;28;20173;-48
2024/01/18 11:45:14;;;;;;;6.80;2.13;;;5.60;42.30;;;;;;5090619;28;20657;-44
2024/01/18 11:47:41;;;;;;;4.68;4.00;;;5.60;42.60;;;;;;5092797;28;20205;-47
2024/01/18 11:50:09;;;;;;;2.20;1.17;;;5.60;42.60;;;;;;5092928;28;20200;-44
2024/01/18 11:52:39;;;;;;;5.20;4.80;;;5.70;42.70;;;;;;5093089;28;20515;-43
2024/01/18 11:55:05;;;;;;;6.03;2.40;;;5.60;42.60;;;;;;5092809;28;20195;-49
2024/01/18 11:57:32;;;;;;;2.70;2.35;;;5.70;42.60;;;;;;5092715;28;20176;-44
2024/01/18 11:59:59;;;;;;;4.72;2.17;;;5.70;42.40;;;;;;5092611;28;20227;-44
2024/01/18 12:02:28;;;;;;;2.50;2.30;;;5.70;42.30;;;;;;5092585;28;20181;-53
2024/01/18 12:04:55;;;;;;;3.92;1.60;;;5.70;42.40;;;;;;5092765;28;20185;-50
2024/01/18 12:07:22;;;;;;;2.15;2.00;;;5.70;42.40;;;;;;5092624;28;20196;-43
2024/01/18 12:09:48;;;;;;;3.58;3.28;;;5.60;42.10;;;;;;5093272;28;20177;-44
2024/01/18 12:12:14;;;;;;;2.80;2.60;;;5.60;42.10;;;;;;5093745;28;20179;-48
2024/01/18 12:14:42;;;;;;;1.52;1.42;;;5.60;42.10;;;;;;5092939;28;20256;-45
2024/01/18 12:17:12;;;;;;;1.35;1.23;;;5.60;41.90;;;;;;5093754;28;20180;-45
2024/01/18 12:19:40;;;;;;;2.15;1.73;;;5.60;42.00;;;;;;5093197;28;20176;-47
2024/01/18 12:22:09;;;;;;;1.00;0.80;;;5.50;41.70;;;;;;5092090;28;20192;-47
2024/01/18 12:24:35;;;;;;;2.55;1.95;;;5.50;41.90;;;;;;5092162;28;20717;-45
2024/01/18 12:27:04;;;;;;;3.00;1.85;;;5.40;42.00;;;;;;5092291;28;20242;-51
2024/01/18 12:29:35;;;;;;;0.90;0.43;;;5.40;42.10;;;;;;5092447;28;20169;-45
2024/01/18 12:32:02;;;;;;;1.83;1.15;;;5.40;42.10;;;;;;5091943;28;20192;-44
2024/01/18 12:34:29;;;;;;;2.50;1.70;;;5.30;42.30;;;;;;5092191;28;20267;-49
2024/01/18 12:36:56;;;;;;;1.05;0.88;;;5.30;42.40;;;;;;5074028;28;20188;-45
2024/01/18 12:39:22;;;;;;;3.50;2.20;;;5.40;42.50;;;;;;5085457;28;20242;-45
2024/01/18 12:41:53;;;;;;;6.25;1.63;;;5.40;42.80;;;;;;5074456;28;20632;-47
2024/01/18 12:44:19;;;;;;;2.33;2.13;;;5.40;42.60;;;;;;5071549;28;20192;-45
2024/01/18 12:46:48;;;;;;;2.08;1.98;;;5.50;42.80;;;;;;5072097;28;20203;-51
2024/01/18 12:49:18;;;;;;;2.90;1.88;;;5.50;42.70;;;;;;5076249;28;20180;-49
2024/01/18 12:51:54;;;;;;;3.08;0.95;;;5.50;42.80;;;;;;5083894;28;20220;-44
2024/01/18 12:54:23;;;;;;;3.08;2.83;;;5.40;42.70;;;;;;5077105;28;20202;-50